Time;durP1;ratioP1;P1;durP2;ratioP2;P2;SDS_P1;SDS_P2;PMS_P1;PMS_P2;Temp;Humidity;BMP_temperature;BMP_pressure;BME280_temperature;BME280_humidity;BME280_pressure;Samples;Min_cycle;Max_cycle;Signal;HPM_P1;HPM_P2
2023/07/14 00:01:22;;;;;;;1.70;0.98;;;;;;;;;;5032365;28;20087;-59
2023/07/14 00:03:48;;;;;;;2.05;1.00;;;;;;;;;;5031688;28;20049;-59
2023/07/14 00:06:15;;;;;;;0.70;0.70;;;;;;;;;;5028441;28;20068;-58
2023/07/14 00:08:41;;;;;;;0.80;0.80;;;;;;;;;;5033587;28;20041;-59
2023/07/14 00:11:15;;;;;;;1.15;0.88;;;;;;;;;;5034660;28;20063;-59
2023/07/14 00:13:41;;;;;;;1.80;1.00;;;;;;;;;;5034072;28;20079;-59
2023/07/14 00:16:17;;;;;;;1.10;0.90;;;;;;;;;;5032827;28;20033;-58
2023/07/14 00:18:43;;;;;;;2.35;1.30;;;;;;;;;;5029953;28;20059;-59
2023/07/14 00:21:15;;;;;;;2.97;1.05;;;;;;;;;;5034341;28;20060;-59
2023/07/14 00:23:41;;;;;;;;;;;;;;;;;;5030249;28;20033;-58
2023/07/14 00:26:14;;;;;;;2.15;0.93;;;;;;;;;;5036322;28;19931;-59
2023/07/14 00:28:41;;;;;;;1.05;1.05;;;;;;;;;;5035032;28;20037;-59
2023/07/14 00:31:10;;;;;;;1.85;1.00;;;;;;;;;;5035485;28;20040;-59
2023/07/14 00:33:36;;;;;;;1.85;1.17;;;;;;;;;;5031890;28;20040;-59
2023/07/14 00:36:02;;;;;;;1.10;1.00;;;;;;;;;;5034368;28;20677;-59
2023/07/14 00:38:28;;;;;;;1.77;1.33;;;;;;;;;;5030447;28;20041;-59
2023/07/14 00:40:54;;;;;;;1.48;0.93;;;;;;;;;;5029851;28;20394;-59
2023/07/14 00:43:22;;;;;;;2.00;1.20;;;;;;;;;;5028348;28;20451;-59
2023/07/14 00:45:48;;;;;;;1.95;1.00;;;;;;;;;;5035488;28;20040;-58
2023/07/14 00:48:15;;;;;;;1.70;1.48;;;;;;;;;;5031125;28;20464;-59
2023/07/14 00:50:53;;;;;;;1.50;1.15;;;;;;;;;;5034432;28;20037;-58
2023/07/14 00:53:22;;;;;;;0.98;0.88;;;;;;;;;;5031341;28;20087;-58
2023/07/14 00:55:50;;;;;;;1.10;1.00;;;;;;;;;;5032260;28;20047;-59
2023/07/14 00:58:18;;;;;;;1.60;1.10;;;;;;;;;;5034569;28;20134;-58
2023/07/14 01:01:01;;;;;;;1.75;1.10;;;;;;;;;;5033866;28;20343;-59
2023/07/14 01:03:27;;;;;;;1.75;1.20;;;;;;;;;;5027656;28;20048;-59
2023/07/14 01:05:53;;;;;;;1.42;1.05;;;;;;;;;;5033029;28;20497;-59
2023/07/14 01:08:21;;;;;;;1.02;1.02;;;;;;;;;;5030629;28;20038;-59
2023/07/14 01:10:47;;;;;;;1.10;1.00;;;;;;;;;;5034048;28;20041;-60
2023/07/14 01:13:13;;;;;;;1.30;1.10;;;;;;;;;;5036701;28;20374;-59
2023/07/14 01:15:40;;;;;;;1.05;0.95;;;;;;;;;;5034137;28;20037;-59
2023/07/14 01:18:06;;;;;;;1.42;1.30;;;;;;;;;;5031732;28;20399;-58
2023/07/14 01:20:33;;;;;;;1.13;1.10;;;;;;;;;;5033396;28;20044;-58
2023/07/14 01:23:02;;;;;;;1.30;1.20;;;;;;;;;;5030211;28;20064;-58
2023/07/14 01:25:37;;;;;;;2.78;1.48;;;;;;;;;;5032063;28;20490;-59
2023/07/14 01:28:04;;;;;;;2.63;0.82;;;;;;;;;;5029670;28;20033;-59
2023/07/14 01:30:32;;;;;;;1.80;1.13;;;;;;;;;;5028352;28;20596;-59
2023/07/14 01:32:58;;;;;;;0.95;0.95;;;;;;;;;;5035242;28;20045;-59
2023/07/14 01:35:29;;;;;;;1.08;0.98;;;;;;;;;;5032788;28;20029;-59
2023/07/14 01:37:55;;;;;;;1.20;1.10;;;;;;;;;;5032405;28;20119;-58
2023/07/14 01:40:21;;;;;;;1.15;1.13;;;;;;;;;;5035627;28;20114;-59
2023/07/14 01:42:58;;;;;;;0.85;0.85;;;;;;;;;;5030364;28;20627;-58
2023/07/14 01:45:26;;;;;;;1.05;1.00;;;;;;;;;;5031272;28;20136;-59
2023/07/14 01:47:55;;;;;;;1.25;1.15;;;;;;;;;;5032547;28;20063;-58
2023/07/14 01:50:33;;;;;;;1.45;1.30;;;;;;;;;;5031914;28;20034;-59
2023/07/14 01:53:02;;;;;;;1.75;1.65;;;;;;;;;;5031962;28;20034;-58
2023/07/14 01:55:32;;;;;;;1.73;1.63;;;;;;;;;;5028544;28;20049;-58
2023/07/14 01:58:00;;;;;;;1.45;1.30;;;;;;;;;;5032862;28;20045;-58
2023/07/14 02:00:26;;;;;;;1.20;1.13;;;;;;;;;;5036610;28;20524;-59
2023/07/14 02:02:53;;;;;;;1.60;1.50;;;;;;;;;;5038994;28;20397;-58
2023/07/14 02:05:31;;;;;;;1.65;1.45;;;;;;;;;;5037563;28;20071;-59
2023/07/14 02:07:58;;;;;;;1.40;1.30;;;;;;;;;;5035477;28;20144;-58
2023/07/14 02:10:24;;;;;;;1.30;1.20;;;;;;;;;;5032954;28;20040;-59
2023/07/14 02:12:50;;;;;;;1.40;1.27;;;;;;;;;;5035293;28;20582;-59
2023/07/14 02:15:25;;;;;;;1.45;1.35;;;;;;;;;;5035643;28;20041;-58
2023/07/14 02:17:54;;;;;;;1.45;1.23;;;;;;;;;;5035119;28;20061;-59
2023/07/14 02:20:25;;;;;;;1.40;1.30;;;;;;;;;;5032637;28;20567;-58
2023/07/14 02:22:52;;;;;;;1.75;1.52;;;;;;;;;;5035076;28;20040;-58
2023/07/14 02:25:19;;;;;;;1.80;1.70;;;;;;;;;;5036119;28;20052;-59
2023/07/14 02:27:46;;;;;;;1.58;1.45;;;;;;;;;;5030743;28;20052;-58
2023/07/14 02:30:16;;;;;;;1.45;1.35;;;;;;;;;;5038467;28;20555;-58
2023/07/14 02:32:46;;;;;;;1.95;1.85;;;;;;;;;;5040679;28;20037;-59
2023/07/14 02:35:19;;;;;;;1.60;1.50;;;;;;;;;;5033127;28;20114;-59
2023/07/14 02:40:45;;;;;;;1.20;1.20;;;;;;;;;;5035204;28;20480;-58
2023/07/14 02:43:13;;;;;;;1.58;1.48;;;;;;;;;;5033982;28;20421;-59
2023/07/14 02:45:43;;;;;;;2.42;1.63;;;;;;;;;;5033247;28;20052;-59
2023/07/14 02:48:11;;;;;;;1.60;1.50;;;;;;;;;;5034999;28;20037;-59
2023/07/14 02:50:37;;;;;;;1.70;1.60;;;;;;;;;;5032876;28;20424;-59
2023/07/14 02:53:03;;;;;;;1.83;1.42;;;;;;;;;;5034613;28;20042;-59
2023/07/14 02:55:29;;;;;;;1.40;1.17;;;;;;;;;;5031314;28;20025;-59
2023/07/14 02:57:55;;;;;;;1.52;1.40;;;;;;;;;;5034816;28;20041;-59
2023/07/14 03:00:21;;;;;;;2.00;1.45;;;;;;;;;;5036195;28;20076;-59
2023/07/14 03:02:47;;;;;;;1.42;1.33;;;;;;;;;;5029096;28;20049;-59
2023/07/14 03:05:13;;;;;;;1.88;1.27;;;;;;;;;;5036022;28;20111;-59
2023/07/14 03:07:39;;;;;;;1.45;1.35;;;;;;;;;;5038716;28;20040;-59
2023/07/14 03:10:08;;;;;;;2.00;1.55;;;;;;;;;;5032496;28;20140;-59
2023/07/14 03:12:34;;;;;;;2.47;1.77;;;;;;;;;;5037045;28;20076;-59
2023/07/14 03:15:00;;;;;;;1.85;1.70;;;;;;;;;;5034641;28;20045;-59
2023/07/14 03:17:26;;;;;;;1.60;1.50;;;;;;;;;;5039717;28;20164;-59
2023/07/14 03:19:52;;;;;;;1.80;1.40;;;;;;;;;;5032492;28;20045;-59
2023/07/14 03:22:18;;;;;;;1.20;1.13;;;;;;;;;;5034869;28;20563;-59
2023/07/14 03:24:45;;;;;;;1.38;1.27;;;;;;;;;;5028699;28;20616;-59
2023/07/14 03:27:11;;;;;;;1.38;1.27;;;;;;;;;;5029796;28;20073;-59
2023/07/14 03:29:37;;;;;;;1.10;1.00;;;;;;;;;;5027098;28;20045;-59
2023/07/14 03:32:03;;;;;;;1.27;1.17;;;;;;;;;;5032903;28;20041;-59
2023/07/14 03:34:29;;;;;;;1.50;1.40;;;;;;;;;;5032557;28;20037;-59
2023/07/14 03:36:55;;;;;;;1.17;1.08;;;;;;;;;;5032030;28;20210;-58
2023/07/14 03:39:25;;;;;;;1.38;1.20;;;;;;;;;;5029941;28;20120;-59
2023/07/14 03:41:55;;;;;;;1.05;1.00;;;;;;;;;;5031414;28;20052;-59
2023/07/14 03:44:21;;;;;;;0.88;0.88;;;;;;;;;;5034662;28;20072;-59
2023/07/14 03:46:47;;;;;;;1.55;1.10;;;;;;;;;;5032296;28;20046;-59
2023/07/14 03:49:14;;;;;;;1.27;1.05;;;;;;;;;;5038117;28;20397;-59
2023/07/14 03:51:40;;;;;;;1.58;1.10;;;;;;;;;;5036139;28;20032;-58
2023/07/14 03:54:07;;;;;;;1.13;1.13;;;;;;;;;;5036669;28;20088;-59
2023/07/14 03:56:33;;;;;;;1.10;1.10;;;;;;;;;;5036323;28;20045;-59
2023/07/14 03:58:59;;;;;;;1.25;1.15;;;;;;;;;;5034387;28;20508;-59
2023/07/14 04:01:25;;;;;;;1.88;1.23;;;;;;;;;;5036577;28;20046;-59
2023/07/14 04:03:51;;;;;;;1.65;1.17;;;;;;;;;;5034336;28;20079;-59
2023/07/14 04:06:17;;;;;;;1.45;1.35;;;;;;;;;;5032495;28;20037;-59
2023/07/14 04:08:44;;;;;;;1.17;1.10;;;;;;;;;;5035367;28;20132;-59
2023/07/14 04:11:11;;;;;;;1.30;1.20;;;;;;;;;;5036086;28;21004;-59
2023/07/14 04:13:37;;;;;;;1.35;1.25;;;;;;;;;;5031530;28;20102;-59
2023/07/14 04:16:04;;;;;;;1.52;1.42;;;;;;;;;;5033357;28;20035;-59
2023/07/14 04:18:31;;;;;;;1.30;1.15;;;;;;;;;;5035307;28;20056;-59
2023/07/14 04:21:01;;;;;;;1.30;1.20;;;;;;;;;;5035495;28;20043;-59
2023/07/14 04:23:27;;;;;;;1.23;1.13;;;;;;;;;;5036233;28;20076;-59
2023/07/14 04:25:54;;;;;;;1.30;1.20;;;;;;;;;;5034523;28;20405;-59
2023/07/14 04:28:21;;;;;;;1.30;1.20;;;;;;;;;;5031006;28;20474;-58
2023/07/14 04:30:54;;;;;;;2.08;1.15;;;;;;;;;;5036475;28;20044;-59
2023/07/14 04:33:21;;;;;;;1.40;1.30;;;;;;;;;;5031828;28;20043;-59
2023/07/14 04:35:57;;;;;;;1.40;1.30;;;;;;;;;;5033597;28;20049;-59
2023/07/14 04:38:24;;;;;;;1.50;1.40;;;;;;;;;;5036738;28;20048;-59
2023/07/14 04:40:50;;;;;;;1.73;1.63;;;;;;;;;;5031223;28;20531;-59
2023/07/14 04:43:17;;;;;;;1.45;1.25;;;;;;;;;;5033961;28;20124;-59
2023/07/14 04:45:44;;;;;;;1.25;1.15;;;;;;;;;;5033773;28;20520;-59
2023/07/14 04:48:12;;;;;;;1.10;1.00;;;;;;;;;;5037401;28;20090;-59
2023/07/14 04:50:38;;;;;;;1.05;1.05;;;;;;;;;;5034691;28;20040;-59
2023/07/14 04:53:05;;;;;;;1.10;1.00;;;;;;;;;;5036403;28;20041;-59
2023/07/14 04:55:31;;;;;;;1.20;1.10;;;;;;;;;;5032625;28;20057;-59
2023/07/14 04:57:57;;;;;;;1.08;0.98;;;;;;;;;;5031518;28;20406;-59
2023/07/14 05:00:23;;;;;;;1.92;1.25;;;;;;;;;;5029723;28;20033;-59
2023/07/14 05:02:49;;;;;;;1.20;1.10;;;;;;;;;;5028625;28;20049;-59
2023/07/14 05:05:19;;;;;;;1.02;0.80;;;;;;;;;;5033728;28;20043;-59
2023/07/14 05:07:47;;;;;;;1.08;1.00;;;;;;;;;;5029858;28;20037;-59
2023/07/14 05:10:13;;;;;;;1.02;0.93;;;;;;;;;;5031323;28;20494;-58
2023/07/14 05:12:39;;;;;;;1.08;0.90;;;;;;;;;;5036695;28;20052;-59
2023/07/14 05:15:06;;;;;;;0.60;0.60;;;;;;;;;;5029469;28;20090;-58
2023/07/14 05:17:36;;;;;;;0.68;0.68;;;;;;;;;;5029758;28;20107;-59
2023/07/14 05:20:03;;;;;;;0.73;0.70;;;;;;;;;;5029451;28;20045;-59
2023/07/14 05:22:29;;;;;;;1.52;0.88;;;;;;;;;;5031913;28;20041;-59
2023/07/14 05:24:55;;;;;;;1.02;0.90;;;;;;;;;;5027911;28;20500;-59
2023/07/14 05:27:21;;;;;;;1.00;0.90;;;;;;;;;;5030886;28;20460;-59
2023/07/14 05:29:49;;;;;;;1.00;0.93;;;;;;;;;;5026539;28;20045;-59
2023/07/14 05:32:16;;;;;;;2.08;0.95;;;;;;;;;;5028169;28;20038;-59
2023/07/14 05:34:42;;;;;;;1.60;0.98;;;;;;;;;;5031229;28;20457;-59
2023/07/14 05:37:08;;;;;;;1.52;0.80;;;;;;;;;;5034860;28;20057;-59
2023/07/14 05:39:35;;;;;;;0.88;0.70;;;;;;;;;;5036017;28;20349;-59
2023/07/14 05:42:03;;;;;;;1.63;1.10;;;;;;;;;;5036662;28;20049;-58
2023/07/14 05:44:30;;;;;;;0.88;0.88;;;;;;;;;;5032002;28;20056;-59
2023/07/14 05:46:56;;;;;;;1.02;0.75;;;;;;;;;;5033597;28;20037;-59
2023/07/14 05:49:22;;;;;;;1.23;0.77;;;;;;;;;;5036093;28;20040;-59
2023/07/14 05:51:48;;;;;;;0.85;0.80;;;;;;;;;;5032757;28;20045;-59
2023/07/14 05:54:14;;;;;;;1.08;0.98;;;;;;;;;;5036667;28;20138;-59
2023/07/14 05:56:40;;;;;;;1.52;1.33;;;;;;;;;;5032731;28;20045;-59
2023/07/14 05:59:07;;;;;;;1.10;1.00;;;;;;;;;;5031500;28;20098;-58
2023/07/14 06:01:33;;;;;;;2.40;1.40;;;;;;;;;;5033146;28;20514;-59
2023/07/14 06:03:59;;;;;;;2.13;1.38;;;;;;;;;;5034224;28;20033;-59
2023/07/14 06:06:26;;;;;;;2.58;1.40;;;;;;;;;;5031058;28;20565;-59
2023/07/14 06:08:53;;;;;;;1.90;1.67;;;;;;;;;;5037055;28;20186;-59
2023/07/14 06:11:19;;;;;;;1.63;1.13;;;;;;;;;;5035141;28;20045;-59
2023/07/14 06:13:45;;;;;;;3.22;1.63;;;;;;;;;;5036774;28;20036;-59
2023/07/14 06:16:12;;;;;;;3.20;1.50;;;;;;;;;;5036826;28;20045;-59
2023/07/14 06:18:38;;;;;;;1.83;1.30;;;;;;;;;;5037657;28;20063;-59
2023/07/14 06:21:04;;;;;;;1.60;1.08;;;;;;;;;;5037726;28;20130;-59
2023/07/14 06:23:30;;;;;;;0.95;0.85;;;;;;;;;;5037619;28;20132;-59
2023/07/14 06:25:57;;;;;;;1.05;0.90;;;;;;;;;;5032869;28;20494;-58
2023/07/14 06:28:24;;;;;;;1.33;0.82;;;;;;;;;;5034298;28;20045;-59
2023/07/14 06:30:56;;;;;;;2.17;1.73;;;;;;;;;;5034337;28;20038;-59
2023/07/14 06:33:22;;;;;;;2.63;1.60;;;;;;;;;;5033980;28;20040;-59
2023/07/14 06:35:48;;;;;;;2.67;1.38;;;;;;;;;;5036834;28;20175;-59
2023/07/14 06:38:14;;;;;;;1.88;1.48;;;;;;;;;;5036068;28;20081;-59
2023/07/14 06:40:41;;;;;;;1.08;0.98;;;;;;;;;;5033372;28;20049;-62
2023/07/14 06:43:09;;;;;;;2.08;1.42;;;;;;;;;;5039160;28;20053;-57
2023/07/14 06:45:35;;;;;;;1.85;1.42;;;;;;;;;;5039404;28;20049;-61
2023/07/14 06:48:01;;;;;;;1.25;1.00;;;;;;;;;;5040827;28;20545;-68
2023/07/14 06:50:27;;;;;;;2.75;1.90;;;;;;;;;;5030349;28;20037;-59
2023/07/14 06:52:54;;;;;;;2.85;2.03;;;;;;;;;;5034686;28;20394;-60
2023/07/14 06:55:20;;;;;;;2.38;1.50;;;;;;;;;;5040293;28;20045;-60
2023/07/14 06:57:46;;;;;;;2.15;1.80;;;;;;;;;;5036686;28;20045;-61
2023/07/14 07:00:12;;;;;;;3.28;1.52;;;;;;;;;;5041566;28;20044;-61
2023/07/14 07:02:39;;;;;;;2.05;1.10;;;;;;;;;;5037380;28;20037;-60
2023/07/14 07:05:06;;;;;;;2.70;2.05;;;;;;;;;;5038528;28;20037;-60
2023/07/14 07:07:33;;;;;;;2.63;1.70;;;;;;;;;;5036255;28;20049;-60
2023/07/14 07:09:59;;;;;;;1.80;1.05;;;;;;;;;;5041436;28;20486;-61
2023/07/14 07:12:25;;;;;;;2.17;1.77;;;;;;;;;;5036931;28;20097;-60
2023/07/14 07:14:51;;;;;;;2.28;1.67;;;;;;;;;;5038559;28;20682;-60
2023/07/14 07:17:17;;;;;;;2.35;1.20;;;;;;;;;;5038553;28;20037;-60
2023/07/14 07:19:43;;;;;;;2.85;1.85;;;;;;;;;;5037045;28;20041;-60
2023/07/14 07:22:09;;;;;;;1.95;1.65;;;;;;;;;;5045664;28;20405;-60
2023/07/14 07:24:36;;;;;;;1.23;1.13;;;;;;;;;;5036568;28;20044;-60
2023/07/14 07:27:02;;;;;;;3.17;1.42;;;;;;;;;;5039165;28;20501;-60
2023/07/14 07:29:30;;;;;;;3.15;1.88;;;;;;;;;;5040432;28;20048;-60
2023/07/14 07:31:56;;;;;;;2.28;2.08;;;;;;;;;;5047038;28;20512;-60
2023/07/14 07:34:22;;;;;;;3.05;1.65;;;;;;;;;;5032909;28;20393;-60
2023/07/14 07:36:48;;;;;;;2.60;1.60;;;;;;;;;;5035228;28;20677;-60
2023/07/14 07:39:14;;;;;;;4.85;2.20;;;;;;;;;;5044595;28;20040;-60
2023/07/14 07:41:41;;;;;;;5.13;2.60;;;;;;;;;;5038466;28;20440;-60
2023/07/14 07:44:08;;;;;;;2.22;1.98;;;;;;;;;;5039246;28;20089;-60
2023/07/14 07:46:35;;;;;;;2.30;2.03;;;;;;;;;;5043199;28;20107;-60
2023/07/14 07:49:02;;;;;;;3.97;2.80;;;;;;;;;;5046068;28;20040;-60
2023/07/14 07:51:28;;;;;;;2.55;2.20;;;;;;;;;;5045390;28;20033;-60
2023/07/14 07:53:54;;;;;;;3.10;2.10;;;;;;;;;;5035786;28;20049;-59
2023/07/14 07:56:20;;;;;;;1.80;1.70;;;;;;;;;;5040289;28;20040;-60
2023/07/14 07:58:47;;;;;;;2.67;2.28;;;;;;;;;;5035068;28;20057;-60
2023/07/14 08:01:20;;;;;;;2.88;1.88;;;;;;;;;;5029608;28;20124;-60
2023/07/14 08:03:46;;;;;;;3.47;2.13;;;;;;;;;;5030277;28;20048;-60
2023/07/14 08:06:12;;;;;;;3.83;2.83;;;;;;;;;;5037080;28;20149;-60
2023/07/14 08:08:38;;;;;;;2.47;1.55;;;;;;;;;;5035496;28;20086;-60
2023/07/14 08:11:07;;;;;;;3.35;1.77;;;;;;;;;;5032252;28;20056;-60
2023/07/14 08:13:34;;;;;;;1.45;1.35;;;;;;;;;;5030322;28;20048;-60
2023/07/14 08:16:00;;;;;;;2.70;1.50;;;;;;;;;;5031408;28;20080;-60
2023/07/14 08:18:26;;;;;;;2.22;1.38;;;;;;;;;;5029966;28;20138;-60
2023/07/14 08:20:53;;;;;;;2.38;1.58;;;;;;;;;;5035670;28;20504;-60
2023/07/14 08:23:20;;;;;;;2.75;1.67;;;;;;;;;;5034772;28;20126;-60
2023/07/14 08:25:52;;;;;;;3.22;2.65;;;;;;;;;;5031688;28;20049;-60
2023/07/14 08:28:18;;;;;;;1.80;1.40;;;;;;;;;;5033931;28;20182;-60
2023/07/14 08:30:49;;;;;;;2.47;1.75;;;;;;;;;;5033904;28;20034;-60
2023/07/14 08:33:15;;;;;;;5.82;2.15;;;;;;;;;;5034901;28;20131;-60
2023/07/14 08:35:41;;;;;;;2.75;2.03;;;;;;;;;;5032181;28;20059;-60
2023/07/14 08:38:07;;;;;;;2.67;1.80;;;;;;;;;;5041535;28;20040;-60
2023/07/14 08:40:37;;;;;;;3.42;1.88;;;;;;;;;;5033420;28;20542;-60
2023/07/14 08:43:09;;;;;;;2.40;1.88;;;;;;;;;;5027688;28;20465;-60
2023/07/14 08:45:36;;;;;;;2.50;2.30;;;;;;;;;;5033223;28;20124;-60
2023/07/14 08:48:06;;;;;;;2.67;1.83;;;;;;;;;;5029130;28;20041;-57
2023/07/14 08:50:33;;;;;;;2.03;1.50;;;;;;;;;;5033936;28;20121;-61
2023/07/14 08:53:03;;;;;;;3.10;1.50;;;;;;;;;;5027327;28;20045;-61
2023/07/14 08:55:30;;;;;;;1.60;1.50;;;;;;;;;;5028289;28;20076;-61
2023/07/14 08:57:59;;;;;;;2.22;1.70;;;;;;;;;;5030225;28;20124;-61
2023/07/14 09:00:34;;;;;;;1.42;1.10;;;;;;;;;;5031933;28;20418;-61
2023/07/14 09:03:15;;;;;;;1.33;1.23;;;;;;;;;;5030708;28;20069;-60
2023/07/14 09:06:02;;;;;;;1.50;1.02;;;;;;;;;;5028578;28;20050;-66
2023/07/14 09:08:29;;;;;;;1.45;1.15;;;;;;;;;;5029579;28;20128;-65
2023/07/14 09:11:00;;;;;;;1.27;1.17;;;;;;;;;;5033319;28;20289;-65
2023/07/14 09:13:35;;;;;;;1.95;1.10;;;;;;;;;;5032816;28;20710;-65
2023/07/14 09:16:02;;;;;;;1.90;1.10;;;;;;;;;;5033021;28;20040;-65
2023/07/14 09:18:34;;;;;;;1.95;1.38;;;;;;;;;;5033211;28;20044;-65
2023/07/14 09:21:22;;;;;;;2.35;1.10;;;;;;;;;;5031430;28;20507;-66
2023/07/14 09:23:54;;;;;;;1.23;1.08;;;;;;;;;;5036190;28;20135;-66
2023/07/14 09:26:28;;;;;;;1.52;0.90;;;;;;;;;;5036973;28;20048;-66
2023/07/14 09:28:55;;;;;;;2.03;1.23;;;;;;;;;;5034027;28;20040;-65
2023/07/14 09:31:24;;;;;;;2.38;1.60;;;;;;;;;;5039784;28;20484;-65
2023/07/14 09:33:58;;;;;;;1.88;1.30;;;;;;;;;;5031261;28;20042;-65
2023/07/14 09:36:25;;;;;;;1.92;1.48;;;;;;;;;;5032808;28;20036;-65
2023/07/14 09:38:53;;;;;;;1.73;1.40;;;;;;;;;;5033927;28;20060;-65
2023/07/14 09:41:22;;;;;;;1.77;1.50;;;;;;;;;;5034360;28;20123;-65
2023/07/14 09:43:48;;;;;;;2.33;1.38;;;;;;;;;;5029261;28;20076;-65
2023/07/14 09:46:17;;;;;;;2.85;1.75;;;;;;;;;;5033413;28;20280;-65
2023/07/14 09:48:47;;;;;;;1.65;1.33;;;;;;;;;;5035569;28;20084;-65
2023/07/14 09:51:16;;;;;;;1.40;1.30;;;;;;;;;;5040495;28;20550;-65
2023/07/14 09:53:56;;;;;;;1.50;1.40;;;;;;;;;;5039298;28;20473;-65
2023/07/14 09:56:25;;;;;;;1.52;1.35;;;;;;;;;;5032877;28;20037;-65
2023/07/14 09:58:52;;;;;;;1.92;1.15;;;;;;;;;;5040264;28;20048;-65
2023/07/14 10:01:19;;;;;;;1.35;1.25;;;;;;;;;;5040403;28;20505;-65
2023/07/14 10:03:49;;;;;;;1.30;1.20;;;;;;;;;;5034143;28;20037;-65
2023/07/14 10:06:21;;;;;;;1.33;1.23;;;;;;;;;;5032190;28;20502;-65
2023/07/14 10:08:47;;;;;;;;;;;;;;;;;;5031452;28;20045;-65
2023/07/14 10:11:20;;;;;;;1.45;1.00;;;;;;;;;;5031013;28;19929;-65
2023/07/14 10:13:50;;;;;;;3.40;1.90;;;;;;;;;;5032406;28;20160;-65
2023/07/14 10:16:17;;;;;;;3.35;2.10;;;;;;;;;;5032703;28;20044;-65
2023/07/14 10:19:07;;;;;;;2.45;1.30;;;;;;;;;;5026445;28;20048;-65
2023/07/14 10:21:34;;;;;;;1.80;1.40;;;;;;;;;;5024246;28;20053;-65
2023/07/14 10:24:05;;;;;;;2.47;1.10;;;;;;;;;;5037433;28;20049;-65
2023/07/14 10:26:33;;;;;;;1.60;1.50;;;;;;;;;;5037693;28;20080;-66
2023/07/14 10:28:59;;;;;;;2.22;1.48;;;;;;;;;;5041579;28;20135;-65
2023/07/14 10:31:40;;;;;;;1.55;1.35;;;;;;;;;;5034913;28;20163;-65
2023/07/14 10:34:22;;;;;;;2.47;1.67;;;;;;;;;;5040905;28;20068;-66
2023/07/14 10:36:48;;;;;;;2.90;2.30;;;;;;;;;;5037530;28;20059;-65
2023/07/14 10:39:23;;;;;;;2.30;1.98;;;;;;;;;;5035184;28;20063;-66
2023/07/14 10:41:49;;;;;;;3.42;1.88;;;;;;;;;;5036013;28;20049;-66
2023/07/14 10:44:35;;;;;;;6.55;1.80;;;;;;;;;;5033285;28;20037;-66
2023/07/14 10:47:03;;;;;;;2.92;2.40;;;;;;;;;;5035602;28;20045;-66
2023/07/14 10:49:32;;;;;;;2.55;2.08;;;;;;;;;;5039408;28;20124;-66
2023/07/14 10:52:18;;;;;;;2.00;1.67;;;;;;;;;;5045853;28;20401;-66
2023/07/14 10:55:03;;;;;;;2.70;1.88;;;;;;;;;;5044319;28;20370;-66
2023/07/14 10:57:33;;;;;;;2.17;1.40;;;;;;;;;;5037036;28;20028;-65
2023/07/14 11:00:01;;;;;;;2.50;1.70;;;;;;;;;;5033039;28;20517;-66
2023/07/14 11:02:35;;;;;;;3.28;1.55;;;;;;;;;;5035030;28;20038;-65
2023/07/14 11:05:03;;;;;;;1.63;1.30;;;;;;;;;;5042423;28;20406;-65
2023/07/14 11:07:30;;;;;;;1.88;1.70;;;;;;;;;;5044500;28;20155;-65
2023/07/14 11:09:57;;;;;;;1.65;1.33;;;;;;;;;;5034738;28;20099;-65
2023/07/14 11:12:29;;;;;;;1.73;1.40;;;;;;;;;;5038545;28;20132;-65
2023/07/14 11:15:04;;;;;;;1.70;1.40;;;;;;;;;;5037401;28;20049;-65
2023/07/14 11:17:50;;;;;;;1.33;1.15;;;;;;;;;;5041450;28;20051;-65
2023/07/14 11:20:17;;;;;;;3.75;1.80;;;;;;;;;;5042698;28;20444;-65
2023/07/14 11:22:55;;;;;;;3.97;2.03;;;;;;;;;;5038799;28;20680;-65
2023/07/14 11:25:24;;;;;;;1.85;1.75;;;;;;;;;;5041481;28;20042;-65
2023/07/14 11:28:14;;;;;;;1.52;1.42;;;;;;;;;;5035831;28;20090;-64
2023/07/14 11:30:42;;;;;;;1.75;1.50;;;;;;;;;;5032512;28;20650;-65
2023/07/14 11:33:17;;;;;;;1.98;1.33;;;;;;;;;;5037004;28;20077;-66
2023/07/14 11:35:49;;;;;;;2.45;1.83;;;;;;;;;;5042633;28;20040;-65
2023/07/14 11:38:28;;;;;;;1.42;1.25;;;;;;;;;;5040032;28;20071;-65
2023/07/14 11:40:54;;;;;;;1.92;1.65;;;;;;;;;;5040383;28;20584;-66
2023/07/14 11:43:25;;;;;;;1.90;1.70;;;;;;;;;;5040692;28;20405;-65
2023/07/14 11:45:57;;;;;;;2.65;1.70;;;;;;;;;;5041009;28;20095;-65
2023/07/14 11:48:25;;;;;;;2.25;2.00;;;;;;;;;;5040820;28;20045;-65
2023/07/14 11:51:08;;;;;;;1.95;1.58;;;;;;;;;;5040264;28;20095;-66
2023/07/14 11:53:35;;;;;;;1.73;1.63;;;;;;;;;;5038115;28;20070;-67
2023/07/14 11:56:14;;;;;;;1.48;1.38;;;;;;;;;;5039484;28;20047;-66
2023/07/14 11:58:40;;;;;;;2.20;1.80;;;;;;;;;;5040595;28;20094;-66
2023/07/14 12:01:32;;;;;;;2.38;1.67;;;;;;;;;;5037245;28;20135;-67
2023/07/14 12:04:19;;;;;;;1.88;1.70;;;;;;;;;;5036316;28;20053;-66
2023/07/14 12:06:46;;;;;;;1.73;1.63;;;;;;;;;;5039284;28;20121;-67
2023/07/14 12:09:18;;;;;;;1.30;1.20;;;;;;;;;;5040260;28;20498;-66
2023/07/14 12:11:46;;;;;;;2.90;2.00;;;;;;;;;;5039603;28;20049;-66
2023/07/14 12:14:28;;;;;;;2.03;1.65;;;;;;;;;;5039992;28;20511;-66
2023/07/14 12:16:54;;;;;;;1.67;1.45;;;;;;;;;;5038169;28;20048;-66
2023/07/14 12:19:22;;;;;;;1.77;1.50;;;;;;;;;;5038888;28;20048;-63
2023/07/14 12:22:05;;;;;;;1.88;1.27;;;;;;;;;;5039522;28;20029;-63
2023/07/14 12:24:34;;;;;;;1.45;1.35;;;;;;;;;;5034114;28;20107;-63
2023/07/14 12:27:06;;;;;;;2.05;1.25;;;;;;;;;;5030754;28;20122;-63
2023/07/14 12:29:32;;;;;;;1.60;1.00;;;;;;;;;;5037448;28;20032;-63
2023/07/14 12:31:58;;;;;;;2.33;1.92;;;;;;;;;;5038217;28;20043;-64
2023/07/14 12:34:25;;;;;;;1.45;1.35;;;;;;;;;;5034010;28;20041;-64
2023/07/14 12:36:52;;;;;;;2.00;1.50;;;;;;;;;;5040740;28;20041;-63
2023/07/14 12:39:18;;;;;;;1.60;1.50;;;;;;;;;;5033556;28;20044;-63
2023/07/14 12:41:49;;;;;;;3.13;2.08;;;;;;;;;;5037949;28;20509;-63
2023/07/14 12:44:35;;;;;;;2.53;1.92;;;;;;;;;;5028658;28;20029;-63
2023/07/14 12:47:01;;;;;;;2.35;1.58;;;;;;;;;;5029042;28;20072;-63
2023/07/14 12:49:31;;;;;;;2.20;1.70;;;;;;;;;;5027910;28;20124;-63
2023/07/14 12:51:58;;;;;;;1.52;1.23;;;;;;;;;;5031766;28;20041;-63
2023/07/14 12:54:25;;;;;;;2.08;1.52;;;;;;;;;;5037565;28;20056;-63
2023/07/14 12:56:53;;;;;;;2.13;1.48;;;;;;;;;;5045273;28;20076;-63
2023/07/14 12:59:19;;;;;;;2.97;1.65;;;;;;;;;;5044224;28;20041;-63
2023/07/14 13:01:46;;;;;;;1.63;1.38;;;;;;;;;;5041226;28;20041;-62
2023/07/14 13:04:12;;;;;;;2.38;1.38;;;;;;;;;;5039481;28;20410;-64
2023/07/14 13:06:39;;;;;;;1.90;1.70;;;;;;;;;;5038932;28;20076;-63
2023/07/14 13:09:20;;;;;;;2.28;1.83;;;;;;;;;;5029040;28;20945;-63
2023/07/14 13:11:47;;;;;;;2.30;1.92;;;;;;;;;;5037133;28;20102;-63
2023/07/14 13:14:17;;;;;;;2.80;1.90;;;;;;;;;;5033572;28;20136;-63
2023/07/14 13:16:43;;;;;;;2.45;1.70;;;;;;;;;;5038355;28;20041;-63
2023/07/14 13:19:21;;;;;;;2.47;1.88;;;;;;;;;;5041171;28;20099;-63
2023/07/14 13:21:48;;;;;;;1.98;1.70;;;;;;;;;;5035392;28;20091;-63
2023/07/14 13:24:25;;;;;;;2.70;1.80;;;;;;;;;;5043933;28;20056;-63
2023/07/14 13:26:53;;;;;;;1.95;1.70;;;;;;;;;;5037959;28;20052;-63
2023/07/14 13:29:29;;;;;;;2.67;1.75;;;;;;;;;;5041725;28;20121;-63
2023/07/14 13:31:57;;;;;;;1.85;1.60;;;;;;;;;;5034037;28;20044;-63
2023/07/14 13:34:24;;;;;;;1.20;1.10;;;;;;;;;;5036084;28;20073;-63
2023/07/14 13:36:52;;;;;;;1.25;1.10;;;;;;;;;;5041016;28;20045;-63
2023/07/14 13:39:23;;;;;;;1.40;1.30;;;;;;;;;;5032753;28;20098;-63
2023/07/14 13:41:49;;;;;;;1.38;1.15;;;;;;;;;;5031545;28;20076;-63
2023/07/14 13:44:28;;;;;;;1.58;1.30;;;;;;;;;;5041431;28;20037;-63
2023/07/14 13:46:54;;;;;;;2.83;1.30;;;;;;;;;;5042038;28;20041;-63
2023/07/14 13:49:21;;;;;;;1.25;1.10;;;;;;;;;;5036604;28;20546;-63
2023/07/14 13:51:47;;;;;;;1.35;1.25;;;;;;;;;;5038131;28;20068;-63
2023/07/14 13:54:17;;;;;;;1.60;1.13;;;;;;;;;;5035857;28;20091;-63
2023/07/14 13:56:44;;;;;;;2.08;1.10;;;;;;;;;;5043245;28;20580;-63
2023/07/14 13:59:18;;;;;;;1.45;1.30;;;;;;;;;;5047388;28;20037;-63
2023/07/14 14:01:44;;;;;;;1.92;1.67;;;;;;;;;;5041209;28;20139;-63
2023/07/14 14:04:15;;;;;;;1.70;1.48;;;;;;;;;;5040875;28;20041;-63
2023/07/14 14:06:41;;;;;;;1.80;1.48;;;;;;;;;;5034640;28;20038;-63
2023/07/14 14:09:18;;;;;;;1.35;1.25;;;;;;;;;;5035792;28;20048;-63
2023/07/14 14:11:47;;;;;;;1.23;1.13;;;;;;;;;;5037255;28;20590;-63
2023/07/14 14:14:13;;;;;;;1.65;1.50;;;;;;;;;;5035241;28;20091;-63
2023/07/14 14:16:39;;;;;;;2.17;1.52;;;;;;;;;;5033581;28;20045;-63
2023/07/14 14:19:05;;;;;;;1.95;1.70;;;;;;;;;;5032757;28;20033;-63
2023/07/14 14:21:33;;;;;;;1.67;1.55;;;;;;;;;;5044673;28;20045;-62
2023/07/14 14:23:59;;;;;;;2.03;1.25;;;;;;;;;;5038944;28;20325;-62
2023/07/14 14:26:25;;;;;;;2.00;1.40;;;;;;;;;;5040352;28;20417;-63
2023/07/14 14:28:51;;;;;;;1.98;1.77;;;;;;;;;;5036621;28;20049;-61
2023/07/14 14:31:17;;;;;;;1.75;1.65;;;;;;;;;;5032344;28;20037;-62
2023/07/14 14:33:44;;;;;;;2.03;1.70;;;;;;;;;;5042727;28;20371;-62
2023/07/14 14:36:10;;;;;;;2.20;2.00;;;;;;;;;;5039051;28;20061;-62
2023/07/14 14:38:36;;;;;;;4.30;2.30;;;;;;;;;;5039196;28;20044;-63
2023/07/14 14:41:04;;;;;;;3.08;2.45;;;;;;;;;;5041439;28;20544;-63
2023/07/14 14:43:31;;;;;;;2.97;2.20;;;;;;;;;;5039901;28;20040;-62
2023/07/14 14:45:59;;;;;;;2.92;2.13;;;;;;;;;;5035971;28;20485;-62
2023/07/14 14:48:30;;;;;;;2.10;1.90;;;;;;;;;;5039434;28;20044;-62
2023/07/14 14:50:57;;;;;;;1.87;1.67;;;;;;;;;;5037660;28;20493;-62
2023/07/14 14:53:28;;;;;;;2.28;2.00;;;;;;;;;;5034205;28;20515;-62
2023/07/14 14:55:56;;;;;;;2.92;2.22;;;;;;;;;;5033941;28;20049;-63